Time;durP1;ratioP1;P1;durP2;ratioP2;P2;SDS_P1;SDS_P2;PMS_P1;PMS_P2;Temp;Humidity;BMP_temperature;BMP_pressure;BME280_temperature;BME280_humidity;BME280_pressure;Samples;Min_cycle;Max_cycle;Signal;HPM_P1;HPM_P2
2022/06/19 00:00:08;;;;;;;11.48;2.67;;;;;;;15.17;89.74;101292.22;4907233;29;20178;-78
2022/06/19 00:02:41;;;;;;;9.27;2.60;;;;;;;15.12;90.25;101294.91;4870915;29;20056;-79
2022/06/19 00:05:10;;;;;;;12.48;2.50;;;;;;;15.09;90.55;101294.94;4904323;29;20174;-79
2022/06/19 00:07:39;;;;;;;8.80;2.67;;;;;;;15.08;90.66;101292.28;4911424;29;20508;-79
2022/06/19 00:10:08;;;;;;;9.27;2.38;;;;;;;15.04;90.80;101302.03;4896296;29;20457;-79
2022/06/19 00:12:39;;;;;;;9.50;2.63;;;;;;;14.99;90.07;101295.91;4906719;29;20076;-79
2022/06/19 00:15:09;;;;;;;8.85;2.22;;;;;;;14.98;90.49;101307.41;4908267;29;20040;-78
2022/06/19 00:17:38;;;;;;;8.38;2.78;;;;;;;14.93;89.96;101290.63;4854061;29;20040;-79
2022/06/19 00:20:07;;;;;;;13.18;2.58;;;;;;;14.91;89.83;101297.72;4903234;29;20055;-79
2022/06/19 00:22:35;;;;;;;10.85;2.63;;;;;;;14.89;88.37;101300.38;4891496;29;20071;-79
2022/06/19 00:25:05;;;;;;;5.00;1.83;;;;;;;14.87;89.16;101296.00;4874319;29;20577;-79
2022/06/19 00:27:38;;;;;;;10.20;2.60;;;;;;;14.85;88.79;101303.09;4877038;29;20490;-79
2022/06/19 00:30:10;;;;;;;10.30;2.50;;;;;;;14.83;89.44;101292.47;4895036;29;20282;-78
2022/06/19 00:32:39;;;;;;;9.35;2.80;;;;;;;14.82;89.87;101281.00;4888311;29;20044;-79
2022/06/19 00:35:08;;;;;;;10.07;2.33;;;;;;;14.84;90.12;101280.09;4886175;29;20675;-79
2022/06/19 00:37:37;;;;;;;8.55;2.83;;;;;;;14.82;90.81;101272.16;4911569;29;20071;-79
2022/06/19 00:40:09;;;;;;;14.35;2.38;;;;;;;14.81;90.90;101257.13;4910942;29;20171;-78
2022/06/19 00:42:40;;;;;;;9.52;2.40;;;;;;;14.78;91.61;101263.34;4910266;29;20540;-79
2022/06/19 00:45:27;;;;;;;10.25;2.00;;;;;;;14.73;91.30;101249.22;4911155;29;20040;-79
2022/06/19 00:47:55;;;;;;;11.93;2.65;;;;;;;14.74;92.08;101252.75;4872534;29;20509;-79
2022/06/19 00:50:28;;;;;;;11.63;2.60;;;;;;;14.74;92.14;101268.66;4878948;29;20052;-78
2022/06/19 00:52:59;;;;;;;7.97;2.25;;;;;;;14.72;92.51;101268.66;4906598;29;20434;-79
2022/06/19 00:55:37;;;;;;;8.60;2.78;;;;;;;14.73;92.95;101269.56;4910661;29;20044;-79
2022/06/19 00:58:16;;;;;;;10.18;2.35;;;;;;;14.74;94.12;101277.50;4908991;29;20346;-79
2022/06/19 01:00:52;;;;;;;14.90;3.03;;;;;;;14.75;94.87;101279.28;4907610;29;20051;-79
2022/06/19 01:03:26;;;;;;;10.95;2.90;;;;;;;14.76;95.16;101289.00;4909329;29;20386;-79
2022/06/19 01:05:55;;;;;;;10.80;2.38;;;;;;;14.75;95.76;101289.88;4869973;29;20055;-78
2022/06/19 01:08:23;;;;;;;15.38;2.33;;;;;;;14.73;95.74;101291.66;4910696;29;20502;-78
2022/06/19 01:10:53;;;;;;;11.98;3.03;;;;;;;14.72;96.09;101289.00;4872954;29;20145;-79
2022/06/19 01:13:27;;;;;;;12.32;2.65;;;;;;;14.71;96.84;101289.94;4894659;29;20421;-79
2022/06/19 01:15:57;;;;;;;13.07;2.33;;;;;;;14.69;97.04;101299.63;4907878;29;20056;-79
2022/06/19 01:18:26;;;;;;;12.88;2.90;;;;;;;14.69;96.97;101319.09;4895403;29;20054;-78
2022/06/19 01:21:00;;;;;;;10.20;2.45;;;;;;;14.71;97.34;101333.25;4857588;29;20598;-79
2022/06/19 01:23:48;;;;;;;10.43;2.90;;;;;;;14.70;98.46;101331.47;4913950;29;20044;-78
2022/06/19 01:26:20;;;;;;;15.35;2.63;;;;;;;14.69;98.50;101329.72;4911562;29;20041;-80
2022/06/19 01:28:56;;;;;;;14.52;2.92;;;;;;;14.68;99.70;101340.34;4907498;29;20047;-79
2022/06/19 01:31:34;;;;;;;10.05;2.72;;;;;;;14.65;100.00;101369.50;4894920;29;20044;-78
2022/06/19 01:34:26;;;;;;;15.77;3.60;;;;;;;14.62;100.00;101367.78;4892321;29;20237;-79
2022/06/19 01:37:14;;;;;;;15.55;2.85;;;;;;;14.61;100.00;101387.22;4888949;29;20036;-79
2022/06/19 01:39:50;;;;;;;16.92;3.17;;;;;;;14.64;100.00;101386.34;4906779;29;20055;-79
2022/06/19 01:42:19;;;;;;;21.77;3.88;;;;;;;14.65;100.00;101377.47;4909268;29;20052;-79
2022/06/19 01:44:48;;;;;;;14.10;2.95;;;;;;;14.61;100.00;101380.16;4890173;29;20052;-79
2022/06/19 01:47:17;;;;;;;17.35;3.25;;;;;;;14.61;100.00;101416.38;4878100;29;20036;-79
2022/06/19 01:49:50;;;;;;;22.90;3.00;;;;;;;14.54;100.00;101388.13;4879855;29;20052;-79
2022/06/19 01:52:20;;;;;;;12.75;2.97;;;;;;;14.50;100.00;101357.19;4896400;29;20052;-79
2022/06/19 01:55:21;;;;;;;17.13;3.83;;;;;;;14.37;100.00;101343.13;4890665;29;20091;-79
2022/06/19 01:57:54;;;;;;;11.32;3.08;;;;;;;14.29;100.00;101332.56;4865668;29;20052;-79
2022/06/19 02:00:26;;;;;;;12.30;2.97;;;;;;;14.23;100.00;101314.00;4909518;29;20036;-79
2022/06/19 02:03:09;;;;;;;17.83;3.30;;;;;;;14.22;100.00;101293.69;4909924;29;20075;-79
2022/06/19 02:05:39;;;;;;;20.27;3.72;;;;;;;14.19;100.00;101283.09;4871981;29;20036;-79
2022/06/19 02:08:10;;;;;;;14.70;3.03;;;;;;;14.21;100.00;101281.31;4892648;29;20043;-79
2022/06/19 02:10:40;;;;;;;12.93;2.92;;;;;;;14.19;100.00;101252.16;4907802;29;20044;-79
2022/06/19 02:13:11;;;;;;;14.13;2.78;;;;;;;14.15;100.00;101254.84;4893280;29;20170;-78
2022/06/19 02:15:40;;;;;;;19.27;3.95;;;;;;;14.14;100.00;101258.38;4908317;29;20045;-79
2022/06/19 02:18:16;;;;;;;16.65;3.10;;;;;;;14.14;100.00;101247.78;4909331;29;20052;-78
2022/06/19 02:20:45;;;;;;;12.70;2.83;;;;;;;14.14;100.00;101239.81;4868172;29;20047;-79
2022/06/19 02:23:13;;;;;;;16.20;3.38;;;;;;;14.12;100.00;101229.25;4903123;29;20060;-79
2022/06/19 02:25:44;;;;;;;17.48;3.97;;;;;;;14.12;100.00;101228.34;4876102;29;20078;-79
2022/06/19 02:28:13;;;;;;;11.77;2.38;;;;;;;14.14;100.00;101229.22;4910427;29;20059;-79
2022/06/19 02:30:41;;;;;;;15.65;3.00;;;;;;;14.14;100.00;101205.38;4893214;29;20055;-79
2022/06/19 02:33:14;;;;;;;11.27;2.60;;;;;;;14.15;100.00;101209.81;4892547;29;20526;-78
2022/06/19 02:35:42;;;;;;;16.20;3.78;;;;;;;14.15;100.00;101178.00;4911931;29;20032;-79
2022/06/19 02:38:16;;;;;;;11.82;2.78;;;;;;;14.14;100.00;101152.38;4858320;29;20044;-78
2022/06/19 02:41:05;;;;;;;14.23;3.55;;;;;;;14.14;100.00;101160.31;4920032;29;20053;-79
2022/06/19 02:43:34;;;;;;;12.60;2.58;;;;;;;14.08;100.00;101155.06;4907990;29;20044;-79
2022/06/19 02:46:06;;;;;;;17.10;2.50;;;;;;;14.04;100.00;101154.22;4876414;29;20040;-78
2022/06/19 02:48:35;;;;;;;15.98;3.42;;;;;;;14.04;100.00;101168.38;4892601;29;20059;-79
2022/06/19 02:51:04;;;;;;;23.65;3.35;;;;;;;13.98;100.00;101184.28;4889885;29;20040;-79
2022/06/19 02:53:33;;;;;;;18.50;3.47;;;;;;;13.96;100.00;101201.06;4858999;29;20048;-79
2022/06/19 02:56:02;;;;;;;14.40;2.70;;;;;;;13.94;100.00;101229.34;4906612;29;20081;-79
2022/06/19 02:58:31;;;;;;;17.52;2.58;;;;;;;13.93;100.00;101257.63;4893831;29;20394;-79
2022/06/19 03:00:59;;;;;;;12.07;2.40;;;;;;;13.90;100.00;101262.03;4875166;29;20242;-78
2022/06/19 03:03:35;;;;;;;10.55;2.35;;;;;;;13.91;100.00;101335.31;4892456;29;20393;-79
2022/06/19 03:06:06;;;;;;;9.82;2.58;;;;;;;13.91;100.00;101308.81;4895767;29;20040;-78
2022/06/19 03:08:35;;;;;;;22.13;4.00;;;;;;;13.89;100.00;101292.94;4877447;29;20028;-79
2022/06/19 03:11:05;;;;;;;28.40;6.38;;;;;;;13.89;100.00;101315.91;4889962;29;20241;-79
2022/06/19 03:13:33;;;;;;;13.70;3.70;;;;;;;13.83;100.00;101330.03;4891303;29;20524;-79
2022/06/19 03:16:04;;;;;;;11.88;2.83;;;;;;;13.75;100.00;101311.53;4904601;29;20568;-79
2022/06/19 03:18:38;;;;;;;19.80;3.13;;;;;;;13.64;100.00;101279.75;4906370;29;20044;-79
2022/06/19 03:21:06;;;;;;;17.80;2.75;;;;;;;13.56;100.00;101275.38;4875543;29;20329;-79
2022/06/19 03:23:36;;;;;;;15.23;2.97;;;;;;;13.45;100.00;101316.00;4898544;29;20063;-79
2022/06/19 03:26:04;;;;;;;16.40;2.90;;;;;;;13.42;100.00;101337.19;4899048;28;20087;-79
2022/06/19 03:28:33;;;;;;;15.13;3.13;;;;;;;13.38;100.00;101292.19;4891139;29;20060;-79
2022/06/19 03:31:02;;;;;;;15.02;2.63;;;;;;;13.35;100.00;101255.13;4873281;29;20422;-79
2022/06/19 03:33:30;;;;;;;12.68;2.47;;;;;;;13.30;100.00;101263.06;4908849;29;20044;-79
2022/06/19 03:35:58;;;;;;;14.73;2.78;;;;;;;13.26;100.00;101267.44;4903155;29;20533;-79
2022/06/19 03:38:27;;;;;;;13.02;2.45;;;;;;;13.23;100.00;101245.41;4892360;29;20040;-79
2022/06/19 03:40:55;;;;;;;20.58;4.25;;;;;;;13.17;100.00;101235.69;4845571;29;20036;-79
2022/06/19 03:43:24;;;;;;;19.25;3.22;;;;;;;13.11;100.00;101240.13;4909815;29;20506;-79
2022/06/19 03:45:58;;;;;;;14.30;2.50;;;;;;;13.10;100.00;101244.56;4872889;29;20354;-79
2022/06/19 03:48:27;;;;;;;14.88;3.20;;;;;;;13.07;100.00;101195.16;4909881;29;20060;-79
2022/06/19 03:50:56;;;;;;;10.45;2.35;;;;;;;13.01;100.00;101178.41;4888552;29;20352;-79
2022/06/19 03:53:24;;;;;;;14.13;3.30;;;;;;;12.92;100.00;101191.66;4914890;29;20056;-78
2022/06/19 03:55:53;;;;;;;14.18;2.88;;;;;;;12.88;100.00;101214.56;4842266;29;20056;-79
2022/06/19 03:58:22;;;;;;;13.60;2.47;;;;;;;12.91;100.00;101217.22;4919582;29;20048;-79
2022/06/19 04:00:50;;;;;;;12.73;2.60;;;;;;;12.92;100.00;101158.13;4886836;29;20040;-79
2022/06/19 04:03:18;;;;;;;14.07;2.80;;;;;;;12.87;100.00;101184.63;4890920;29;20055;-79
2022/06/19 04:05:50;;;;;;;11.93;3.20;;;;;;;12.79;100.00;101128.19;4903462;29;20040;-79
2022/06/19 04:08:18;;;;;;;11.07;2.35;;;;;;;12.73;100.00;101091.19;4891724;29;20051;-79
2022/06/19 04:10:47;;;;;;;8.75;2.40;;;;;;;12.57;100.00;101094.72;4875561;29;20063;-79
2022/06/19 04:13:15;;;;;;;6.40;2.25;;;;;;;12.50;100.00;101169.63;4889898;29;20047;-79
2022/06/19 04:15:43;;;;;;;10.07;1.92;;;;;;;12.48;100.00;101196.94;4906049;29;20055;-79
2022/06/19 04:18:12;;;;;;;5.30;1.40;;;;;;;12.44;100.00;101196.94;4908487;29;20565;-79
2022/06/19 04:20:42;;;;;;;7.15;1.75;;;;;;;12.40;100.00;101192.50;4873667;29;20060;-79
2022/06/19 04:23:11;;;;;;;6.93;1.95;;;;;;;12.32;100.00;101218.94;4907548;29;20044;-79
2022/06/19 04:25:44;;;;;;;14.25;2.95;;;;;;;12.32;100.00;101226.84;4873347;29;20497;-79
2022/06/19 04:28:13;;;;;;;15.43;2.83;;;;;;;12.32;100.00;101194.28;4853473;29;20044;-79
2022/06/19 04:30:46;;;;;;;6.63;2.60;;;;;;;12.26;100.00;101166.94;4872114;29;20040;-79
2022/06/19 04:33:16;;;;;;;8.10;2.10;;;;;;;12.21;100.00;101168.72;4891728;29;20522;-79
2022/06/19 04:35:47;;;;;;;9.38;2.28;;;;;;;12.19;100.00;101177.50;4889585;29;20418;-79
2022/06/19 04:38:16;;;;;;;7.55;2.85;;;;;;;12.19;100.00;101104.44;4907957;29;20048;-79
2022/06/19 04:40:45;;;;;;;17.83;3.13;;;;;;;12.16;100.00;101079.78;4905292;29;20572;-79
2022/06/19 04:43:13;;;;;;;16.90;3.20;;;;;;;12.13;100.00;101108.81;4839005;29;20307;-79
2022/06/19 04:45:42;;;;;;;11.45;2.85;;;;;;;12.11;100.00;101052.47;4889526;29;20048;-79
2022/06/19 04:48:10;;;;;;;14.73;3.17;;;;;;;12.09;100.00;101036.63;4890896;29;20055;-79
2022/06/19 04:50:40;;;;;;;14.45;3.15;;;;;;;12.07;100.00;101081.50;4907276;29;20048;-79
2022/06/19 04:53:08;;;;;;;12.65;2.90;;;;;;;12.10;100.00;101072.72;4890786;29;20274;-79
2022/06/19 04:55:37;;;;;;;17.63;2.70;;;;;;;12.13;100.00;101056.88;4891114;29;20052;-79
2022/06/19 04:58:07;;;;;;;14.45;3.13;;;;;;;12.21;100.00;101054.22;4889347;29;20051;-78
2022/06/19 05:00:35;;;;;;;15.40;2.92;;;;;;;12.27;100.00;101067.44;4861799;29;20055;-79
2022/06/19 05:03:04;;;;;;;13.52;3.42;;;;;;;12.29;100.00;101089.47;4889439;29;20266;-79
2022/06/19 05:05:33;;;;;;;20.80;3.85;;;;;;;12.27;100.00;101133.50;4887323;29;20067;-79
2022/06/19 05:08:01;;;;;;;13.18;2.70;;;;;;;12.28;100.00;101122.03;4889095;29;20637;-78
2022/06/19 05:10:30;;;;;;;17.63;3.33;;;;;;;12.29;100.00;101118.53;4892573;29;20398;-78
2022/06/19 05:12:58;;;;;;;19.52;3.25;;;;;;;12.36;100.00;101124.69;4888170;29;20036;-78
2022/06/19 05:15:27;;;;;;;9.77;2.80;;;;;;;12.41;100.00;101131.72;4875205;29;20055;-78
2022/06/19 05:17:56;;;;;;;12.95;2.70;;;;;;;12.47;100.00;101130.84;4907194;29;20445;-78
2022/06/19 05:20:24;;;;;;;14.88;2.92;;;;;;;12.47;100.00;101130.84;4894701;29;20051;-78
2022/06/19 05:22:53;;;;;;;9.95;2.45;;;;;;;12.48;100.00;101154.66;4891267;29;20044;-78
2022/06/19 05:25:22;;;;;;;13.15;2.88;;;;;;;12.50;100.00;101153.78;4910960;29;20040;-78
2022/06/19 05:27:50;;;;;;;15.88;3.17;;;;;;;12.53;100.00;101148.47;4860131;29;20040;-79
2022/06/19 05:30:18;;;;;;;13.90;3.42;;;;;;;12.50;100.00;101133.50;4846127;29;20040;-78
2022/06/19 05:32:49;;;;;;;15.68;3.38;;;;;;;12.51;100.00;101132.59;4906960;29;20048;-79
2022/06/19 05:35:18;;;;;;;13.38;2.90;;;;;;;12.54;100.00;101115.88;4911826;29;20063;-78
2022/06/19 05:37:47;;;;;;;13.45;2.65;;;;;;;12.60;100.00;101097.38;4907562;29;20039;-78
2022/06/19 05:40:15;;;;;;;15.70;3.33;;;;;;;12.60;100.00;101074.44;4913609;29;20051;-78
2022/06/19 05:42:47;;;;;;;18.92;4.13;;;;;;;12.63;100.00;101078.88;4911941;29;20059;-79
2022/06/19 05:45:16;;;;;;;18.38;4.13;;;;;;;12.65;100.00;101077.97;4909890;29;20055;-78
2022/06/19 05:47:45;;;;;;;12.70;2.90;;;;;;;12.67;100.00;101102.66;4873307;29;20066;-79
2022/06/19 05:50:14;;;;;;;14.02;2.92;;;;;;;12.71;100.00;101113.22;4886071;29;20516;-78
2022/06/19 05:52:42;;;;;;;18.92;3.50;;;;;;;12.70;100.00;101109.69;4881537;29;20414;-79
2022/06/19 05:55:12;;;;;;;13.10;2.80;;;;;;;12.67;100.00;101086.78;4900217;29;20058;-78
2022/06/19 05:57:40;;;;;;;10.25;2.70;;;;;;;12.64;100.00;101101.75;4913846;29;20052;-79
2022/06/19 06:00:09;;;;;;;6.80;2.30;;;;;;;12.63;100.00;101115.88;4898528;29;20265;-78
2022/06/19 06:02:41;;;;;;;16.17;4.00;;;;;;;12.62;100.00;101114.09;4856937;29;20032;-79
2022/06/19 06:05:10;;;;;;;21.42;3.72;;;;;;;12.62;100.00;101132.63;4877316;29;20048;-78
2022/06/19 06:07:39;;;;;;;14.02;3.08;;;;;;;12.61;100.00;101144.97;4891746;29;20044;-79
2022/06/19 06:10:10;;;;;;;19.73;3.03;;;;;;;12.60;100.00;101121.16;4876348;29;20250;-78
2022/06/19 06:12:39;;;;;;;19.45;3.40;;;;;;;12.58;100.00;101118.50;4908478;29;20048;-79
2022/06/19 06:15:09;;;;;;;16.67;3.30;;;;;;;12.57;100.00;101113.22;4907931;29;20047;-78
2022/06/19 06:17:37;;;;;;;12.25;2.50;;;;;;;12.57;100.00;101126.44;4861608;29;20047;-79
2022/06/19 06:20:06;;;;;;;14.73;2.72;;;;;;;12.56;100.00;101133.50;4922045;29;20044;-78
2022/06/19 06:22:35;;;;;;;15.50;3.33;;;;;;;12.57;100.00;101131.72;4881418;29;20056;-79
2022/06/19 06:25:04;;;;;;;13.52;2.95;;;;;;;12.58;100.00;101141.44;4880597;29;20055;-78
2022/06/19 06:27:32;;;;;;;13.25;2.70;;;;;;;12.59;100.00;101135.25;4876875;29;20063;-78
2022/06/19 06:30:01;;;;;;;18.25;3.65;;;;;;;12.59;100.00;101137.88;4890269;29;20059;-78
2022/06/19 06:32:32;;;;;;;14.48;2.92;;;;;;;12.60;100.00;101132.59;4872994;29;20055;-78
2022/06/19 06:35:00;;;;;;;13.88;2.80;;;;;;;12.63;100.00;101121.16;4848682;29;20040;-79
2022/06/19 06:37:29;;;;;;;13.00;2.88;;;;;;;12.65;100.00;101111.47;4917978;29;20059;-78
2022/06/19 06:39:57;;;;;;;15.32;3.08;;;;;;;12.67;100.00;101109.69;4889613;29;20245;-78
2022/06/19 06:42:25;;;;;;;13.70;2.95;;;;;;;12.70;100.00;101080.59;4892476;29;20044;-78
2022/06/19 06:44:54;;;;;;;14.65;3.05;;;;;;;12.77;100.00;101077.06;4887545;29;20334;-78
2022/06/19 06:47:23;;;;;;;14.13;3.45;;;;;;;12.85;100.00;101085.88;4907966;29;20056;-78
2022/06/19 06:49:51;;;;;;;12.88;3.00;;;;;;;12.91;100.00;101092.91;4837265;29;20079;-79
2022/06/19 06:52:20;;;;;;;16.23;3.40;;;;;;;12.98;100.00;101107.00;4911006;29;20047;-78
2022/06/19 06:54:50;;;;;;;17.67;3.15;;;;;;;13.06;100.00;101113.13;4888331;29;20044;-79
2022/06/19 06:57:18;;;;;;;16.67;4.68;;;;;;;13.13;100.00;101130.75;4892086;29;20067;-78
2022/06/19 06:59:50;;;;;;;18.45;4.47;;;;;;;13.18;100.00;101134.28;4908073;29;20390;-78
2022/06/19 07:02:18;;;;;;;21.38;2.88;;;;;;;13.21;100.00;101134.28;4879494;29;20047;-78
2022/06/19 07:04:47;;;;;;;13.98;2.38;;;;;;;13.17;100.00;101123.69;4855501;29;20371;-79
2022/06/19 07:07:19;;;;;;;15.73;3.55;;;;;;;13.16;100.00;101133.41;4908188;29;20052;-78
2022/06/19 07:09:48;;;;;;;17.40;3.08;;;;;;;13.14;100.00;101143.13;4874185;29;20063;-79
2022/06/19 07:12:17;;;;;;;12.20;2.70;;;;;;;13.16;100.00;101138.69;4892524;29;20048;-78
2022/06/19 07:14:45;;;;;;;14.95;2.70;;;;;;;13.23;100.00;101150.13;4876827;29;20390;-78
2022/06/19 07:17:15;;;;;;;21.20;2.80;;;;;;;13.26;100.00;101168.66;4908217;29;20063;-78
2022/06/19 07:19:44;;;;;;;15.27;2.65;;;;;;;13.31;100.00;101171.31;4865527;29;20051;-78
2022/06/19 07:22:15;;;;;;;15.30;2.92;;;;;;;13.34;100.00;101176.59;4887881;29;20055;-78
2022/06/19 07:24:46;;;;;;;13.68;2.70;;;;;;;13.36;100.00;101183.66;4889924;29;20048;-79
2022/06/19 07:27:15;;;;;;;;;;;;;;;13.39;100.00;101193.38;4908593;29;20334;-78
2022/06/19 07:29:45;;;;;;;10.73;2.42;;;;;;;13.38;100.00;101197.78;4906381;29;19923;-79
2022/06/19 07:32:14;;;;;;;17.17;3.83;;;;;;;13.41;100.00;101186.28;4875507;29;20040;-78
2022/06/19 07:34:43;;;;;;;13.27;2.97;;;;;;;13.41;100.00;101173.94;4853295;29;20047;-78
2022/06/19 07:37:16;;;;;;;13.02;2.95;;;;;;;13.45;100.00;101177.44;4900220;29;20087;-78
2022/06/19 07:39:45;;;;;;;14.95;2.58;;;;;;;13.49;100.00;101176.56;4905343;29;20461;-79
2022/06/19 07:42:13;;;;;;;14.93;2.60;;;;;;;13.52;100.00;101192.44;4907366;29;20514;-78
2022/06/19 07:44:42;;;;;;;16.38;3.20;;;;;;;13.53;100.00;101210.06;4904264;29;20052;-78
2022/06/19 07:50:12;;;;;;;18.33;3.15;;;;;;;13.61;100.00;101200.34;4911576;29;20059;-78
2022/06/19 07:52:44;;;;;;;14.55;3.05;;;;;;;13.62;100.00;101217.97;4856341;29;20044;-79
2022/06/19 07:55:25;;;;;;;12.70;3.00;;;;;;;13.67;100.00;101214.44;4907121;29;20047;-78
2022/06/19 07:57:55;;;;;;;10.45;2.60;;;;;;;13.70;100.00;101227.69;4900945;29;20322;-78
2022/06/19 08:00:26;;;;;;;11.05;3.00;;;;;;;13.75;100.00;101232.06;4909701;29;20055;-78
2022/06/19 08:02:55;;;;;;;18.30;4.22;;;;;;;13.83;100.00;101242.63;4907170;29;20055;-78
2022/06/19 08:05:27;;;;;;;13.07;2.72;;;;;;;13.84;100.00;101252.34;4891293;29;20366;-78
2022/06/19 08:08:01;;;;;;;14.77;2.50;;;;;;;13.83;100.00;101253.22;4861313;29;20051;-78
2022/06/19 08:10:36;;;;;;;11.13;2.78;;;;;;;13.81;100.00;101255.88;4908222;29;20052;-78
2022/06/19 08:13:06;;;;;;;13.20;2.90;;;;;;;13.81;100.00;101265.59;4889447;29;20071;-79
2022/06/19 08:15:35;;;;;;;9.20;2.40;;;;;;;13.82;100.00;101288.56;4897707;29;20052;-78
2022/06/19 08:18:04;;;;;;;16.48;2.58;;;;;;;13.81;100.00;101300.91;4904768;29;20258;-78
2022/06/19 08:20:33;;;;;;;13.10;3.00;;;;;;;13.80;100.00;101300.94;4875951;29;20048;-78
2022/06/19 08:23:03;;;;;;;15.02;3.05;;;;;;;13.80;100.00;101298.28;4868296;29;20387;-78
2022/06/19 08:25:32;;;;;;;16.38;2.90;;;;;;;13.76;100.00;101302.72;4886274;29;20048;-78
2022/06/19 08:28:04;;;;;;;9.63;1.63;;;;;;;13.74;100.00;101309.78;4891328;29;20306;-78
2022/06/19 08:30:37;;;;;;;11.10;2.42;;;;;;;13.74;100.00;101319.47;4882123;29;20546;-78
2022/06/19 08:33:07;;;;;;;10.65;1.98;;;;;;;13.76;100.00;101323.00;4900375;29;20422;-79
2022/06/19 08:35:50;;;;;;;12.38;2.65;;;;;;;13.79;100.00;101321.22;4902507;29;20206;-78
2022/06/19 08:38:27;;;;;;;10.10;2.20;;;;;;;13.85;100.00;101325.63;4868894;29;20052;-78
2022/06/19 08:41:12;;;;;;;10.13;2.10;;;;;;;13.93;100.00;101331.81;4891191;29;20376;-78
2022/06/19 08:44:13;;;;;;;9.15;2.67;;;;;;;13.99;100.00;101334.44;4880378;29;20070;-78
2022/06/19 08:46:49;;;;;;;5.65;1.80;;;;;;;14.01;100.00;101330.00;4888955;29;20055;-79
2022/06/19 08:49:35;;;;;;;4.10;1.95;;;;;;;14.04;100.00;101327.34;4875487;29;20395;-78
2022/06/19 08:52:28;;;;;;;7.93;1.67;;;;;;;14.14;100.00;101316.69;4906147;29;20042;-78
2022/06/19 08:55:25;;;;;;;8.70;1.92;;;;;;;14.21;100.00;101314.03;4861029;29;20032;-78
2022/06/19 08:58:02;;;;;;;8.20;2.22;;;;;;;14.32;100.00;101307.78;4909628;29;20044;-77
2022/06/19 09:01:10;;;;;;;7.15;1.95;;;;;;;14.35;100.00;101316.59;4895650;29;20250;-79
2022/06/19 09:07:04;;;;;;;9.07;2.20;;;;;;;14.30;100.00;101323.69;4899736;29;20416;-78
2022/06/19 09:10:00;;;;;;;5.95;1.50;;;;;;;14.24;100.00;101313.13;4850259;29;20283;-77
2022/06/19 09:12:53;;;;;;;6.00;1.63;;;;;;;14.23;100.00;101314.00;4885208;29;20058;-79
2022/06/19 09:15:39;;;;;;;3.97;1.70;;;;;;;14.17;100.00;101314.03;4889398;29;20548;-79
2022/06/19 09:18:47;;;;;;;8.98;1.77;;;;;;;14.14;100.00;101312.28;4916315;29;20398;-79
2022/06/19 09:21:28;;;;;;;9.45;2.10;;;;;;;14.16;100.00;101304.34;4885633;29;20064;-80
2022/06/19 09:23:56;;;;;;;6.13;1.50;;;;;;;14.19;100.00;101306.97;4910354;29;20055;-79
2022/06/19 09:26:42;;;;;;;5.03;1.70;;;;;;;14.22;100.00;101312.25;4887613;29;20055;-79
2022/06/19 09:29:35;;;;;;;6.30;1.80;;;;;;;14.25;100.00;101306.91;4897233;29;20137;-79
2022/06/19 09:32:35;;;;;;;6.43;1.85;;;;;;;14.34;100.00;101300.69;4896707;29;20044;-79
2022/06/19 09:35:32;;;;;;;3.35;1.20;;;;;;;14.43;100.00;101298.00;4897946;29;20043;-79
2022/06/19 09:38:09;;;;;;;9.07;1.73;;;;;;;14.40;100.00;101308.63;4898377;29;20051;-79
2022/06/19 09:40:41;;;;;;;3.53;1.13;;;;;;;14.40;100.00;101313.91;4887436;29;20048;-78
2022/06/19 09:43:31;;;;;;;5.65;1.77;;;;;;;14.43;100.00;101333.34;4902957;29;20521;-79
2022/06/19 09:46:04;;;;;;;6.43;1.63;;;;;;;14.43;100.00;101313.91;4905445;29;20071;-79
2022/06/19 09:48:38;;;;;;;3.42;1.10;;;;;;;14.44;100.00;101310.34;4896482;29;20040;-79
2022/06/19 09:51:17;;;;;;;3.25;1.13;;;;;;;14.42;100.00;101296.22;4922288;29;20402;-79
2022/06/19 09:53:52;;;;;;;8.18;1.65;;;;;;;14.42;100.00;101301.53;4898312;29;20040;-79
2022/06/19 09:56:42;;;;;;;5.47;1.25;;;;;;;14.40;100.00;101300.66;4874926;29;20040;-79
2022/06/19 09:59:37;;;;;;;5.75;1.75;;;;;;;14.33;100.00;101273.31;4903074;29;20060;-79
2022/06/19 10:02:30;;;;;;;4.88;1.50;;;;;;;14.34;100.00;101271.53;4907067;29;20051;-78
2022/06/19 10:05:21;;;;;;;2.33;1.10;;;;;;;14.35;100.00;101263.59;4895147;29;20040;-79
2022/06/19 10:07:59;;;;;;;4.80;1.67;;;;;;;14.39;100.00;101267.97;4911433;29;20071;-78
2022/06/19 10:10:46;;;;;;;4.45;1.40;;;;;;;14.45;100.00;101255.59;4871078;29;20064;-78
2022/06/19 10:13:22;;;;;;;7.70;1.60;;;;;;;14.53;100.00;101245.78;4905517;29;20045;-78
2022/06/19 10:15:54;;;;;;;4.63;1.48;;;;;;;14.62;100.00;101225.41;4903346;29;20044;-78
2022/06/19 10:18:32;;;;;;;4.97;1.35;;;;;;;14.72;100.00;101238.63;4891421;29;20044;-78
2022/06/19 10:24:58;;;;;;;3.30;1.20;;;;;;;14.85;100.00;101236.75;4928499;29;20421;-79
2022/06/19 10:27:33;;;;;;;5.07;1.05;;;;;;;14.93;100.00;101241.13;4884949;29;20464;-79
2022/06/19 10:30:07;;;;;;;4.25;1.20;;;;;;;15.09;100.00;101236.53;4886976;29;20060;-79
2022/06/19 10:32:41;;;;;;;4.78;1.38;;;;;;;15.23;100.00;101254.09;4909045;29;20598;-79
2022/06/19 10:35:31;;;;;;;2.28;1.00;;;;;;;15.30;100.00;101262.00;4911993;29;20363;-79
2022/06/19 10:38:06;;;;;;;2.05;0.93;;;;;;;15.38;100.00;101252.16;4917867;29;20044;-79
2022/06/19 10:41:05;;;;;;;3.17;1.00;;;;;;;15.44;100.00;101256.53;4910963;29;20250;-79
2022/06/19 10:44:00;;;;;;;1.63;0.90;;;;;;;15.43;100.00;101262.75;4896416;29;20055;-79
2022/06/19 10:46:31;;;;;;;2.05;0.90;;;;;;;15.38;100.00;101265.44;4897557;29;20353;-78
2022/06/19 10:49:18;;;;;;;2.53;0.95;;;;;;;15.27;100.00;101247.88;4917826;29;20032;-78
2022/06/19 10:52:08;;;;;;;2.05;0.90;;;;;;;15.23;100.00;101243.50;4914768;29;20414;-78
2022/06/19 10:55:03;;;;;;;1.90;0.70;;;;;;;15.23;100.00;101243.50;4909833;29;20040;-79
2022/06/19 10:58:06;;;;;;;0.95;0.82;;;;;;;15.20;100.00;101242.63;4875275;29;20171;-78
2022/06/19 11:00:34;;;;;;;2.60;0.80;;;;;;;15.15;100.00;101247.09;4897860;29;20064;-78
2022/06/19 11:06:05;;;;;;;3.42;0.90;;;;;;;14.95;100.00;101252.59;4908939;29;20032;-79
2022/06/19 11:08:35;;;;;;;2.67;0.90;;;;;;;14.87;100.00;101246.44;4908690;29;20262;-78
2022/06/19 11:11:06;;;;;;;4.18;0.98;;;;;;;14.85;100.00;101250.03;4892165;29;20048;-79
2022/06/19 11:14:07;;;;;;;7.60;0.90;;;;;;;14.82;100.00;101248.28;4863874;29;20522;-79
2022/06/19 11:16:56;;;;;;;2.67;0.80;;;;;;;14.75;100.00;101242.13;4902826;28;20066;-79
2022/06/19 11:19:47;;;;;;;2.40;0.90;;;;;;;14.79;100.00;101243.00;4903907;29;20969;-79
2022/06/19 11:22:22;;;;;;;1.48;0.90;;;;;;;14.74;100.00;101250.97;4898577;29;20048;-79
2022/06/19 11:24:52;;;;;;;1.75;0.85;;;;;;;14.71;100.00;101251.00;4909862;29;20051;-78
2022/06/19 11:27:26;;;;;;;4.10;1.02;;;;;;;14.75;100.00;101241.25;4908983;29;20067;-80
2022/06/19 11:29:57;;;;;;;2.03;1.02;;;;;;;14.72;100.00;101249.22;4876574;29;20059;-80
2022/06/19 11:32:29;;;;;;;2.30;1.05;;;;;;;14.76;100.00;101253.63;4881427;29;20873;-79
2022/06/19 11:35:05;;;;;;;2.80;0.80;;;;;;;14.69;100.00;101267.81;4903035;29;20534;-80
2022/06/19 11:37:46;;;;;;;4.38;1.25;;;;;;;14.65;100.00;101277.59;4895122;29;20182;-80
2022/06/19 11:40:36;;;;;;;2.13;1.13;;;;;;;14.63;100.00;101274.06;4905070;29;20044;-80
2022/06/19 11:43:24;;;;;;;4.85;1.55;;;;;;;14.60;100.00;101282.03;4922185;29;20052;-79
2022/06/19 11:46:15;;;;;;;2.78;1.20;;;;;;;14.56;100.00;101282.91;4860093;29;20048;-79
2022/06/19 11:48:45;;;;;;;1.95;1.08;;;;;;;14.49;100.00;101297.97;4882430;29;20052;-79
2022/06/19 11:51:21;;;;;;;3.15;1.10;;;;;;;14.47;100.00;101312.13;4890946;29;20747;-80
2022/06/19 11:53:57;;;;;;;4.80;1.20;;;;;;;14.40;100.00;101316.56;4908111;29;20048;-79
2022/06/19 11:56:25;;;;;;;3.17;1.42;;;;;;;14.36;100.00;101326.31;4905521;29;20045;-79